createdAt,value
2022-10-12T00:02:09.826Z,3.50
2022-10-12T00:04:37.592Z,3.50
2022-10-12T00:07:05.307Z,3.60
2022-10-12T00:09:34.391Z,3.70
2022-10-12T00:12:02.092Z,3.90
2022-10-12T00:14:29.819Z,4.00
2022-10-12T00:16:58.145Z,4.10
2022-10-12T00:19:25.872Z,4.00
2022-10-12T00:21:53.586Z,3.90
2022-10-12T00:24:21.329Z,3.90
2022-10-12T00:26:52.258Z,4.00
2022-10-12T00:29:20.338Z,3.90
2022-10-12T00:31:48.111Z,3.80
2022-10-12T00:34:16.005Z,3.80
2022-10-12T00:36:43.818Z,3.70
2022-10-12T00:39:12.086Z,3.70
2022-10-12T00:41:42.916Z,3.50
2022-10-12T00:44:42.134Z,3.50
2022-10-12T00:47:18.749Z,3.60
2022-10-12T00:49:49.728Z,3.60
2022-10-12T00:52:20.463Z,3.60
2022-10-12T00:54:51.544Z,3.50
2022-10-12T00:57:20.104Z,3.40
2022-10-12T00:59:52.967Z,3.40
2022-10-12T01:02:21.631Z,3.40
2022-10-12T01:04:49.558Z,3.50
2022-10-12T01:07:17.551Z,3.60
2022-10-12T01:09:45.821Z,3.60
2022-10-12T01:12:13.920Z,3.50
2022-10-12T01:14:41.683Z,3.50
2022-10-12T01:17:21.423Z,3.50
2022-10-12T01:20:11.126Z,3.40
2022-10-12T01:22:45.569Z,3.40
2022-10-12T01:25:30.634Z,3.40
2022-10-12T01:28:10.194Z,3.40
2022-10-12T01:30:44.713Z,3.40
2022-10-12T01:33:25.051Z,3.40
2022-10-12T01:36:01.650Z,3.40
2022-10-12T01:38:36.338Z,3.30
2022-10-12T01:41:09.060Z,3.20
2022-10-12T01:43:37.919Z,3.20
2022-10-12T01:46:53.508Z,3.30
2022-10-12T01:49:26.075Z,3.20
2022-10-12T01:52:07.929Z,3.20
2022-10-12T01:54:50.150Z,3.10
2022-10-12T01:57:25.343Z,3.00
2022-10-12T02:00:02.346Z,3.00
2022-10-12T02:02:36.500Z,3.00
2022-10-12T02:05:11.377Z,3.00
2022-10-12T02:07:43.461Z,2.90
2022-10-12T02:10:15.715Z,2.80
2022-10-12T02:12:44.957Z,2.70
2022-10-12T02:15:14.925Z,2.70
2022-10-12T02:17:47.237Z,2.80
2022-10-12T02:20:19.241Z,2.70
2022-10-12T02:22:50.785Z,2.60
2022-10-12T02:25:22.544Z,2.70
2022-10-12T02:27:56.746Z,2.70
2022-10-12T02:30:24.798Z,2.70
2022-10-12T02:32:55.807Z,2.70
2022-10-12T02:35:32.210Z,2.60
2022-10-12T02:38:05.793Z,2.60
2022-10-12T02:40:37.413Z,2.60
2022-10-12T02:43:11.824Z,2.60
2022-10-12T02:45:41.814Z,2.60
2022-10-12T02:48:12.194Z,2.60
2022-10-12T02:50:41.582Z,2.60
2022-10-12T02:53:09.899Z,2.50
2022-10-12T02:55:39.685Z,2.50
2022-10-12T02:58:07.393Z,2.50
2022-10-12T03:00:35.287Z,2.40
2022-10-12T03:03:02.992Z,2.30
2022-10-12T03:05:30.679Z,2.30
2022-10-12T03:07:59.705Z,2.30
2022-10-12T03:10:27.419Z,2.30
2022-10-12T03:12:55.294Z,2.30
2022-10-12T03:15:23.013Z,2.30
2022-10-12T03:17:50.840Z,2.30
2022-10-12T03:20:18.663Z,2.30
2022-10-12T03:22:46.605Z,2.40
2022-10-12T03:25:15.726Z,2.40
2022-10-12T03:27:43.518Z,2.40
2022-10-12T03:30:12.506Z,2.40
2022-10-12T03:32:40.790Z,2.30
2022-10-12T03:35:09.582Z,2.30
2022-10-12T03:37:37.575Z,2.10
2022-10-12T03:40:06.449Z,2.20
2022-10-12T03:42:35.487Z,2.10
2022-10-12T03:45:03.194Z,2.10
2022-10-12T03:47:30.938Z,2.10
2022-10-12T03:49:58.629Z,2.20
2022-10-12T03:52:26.420Z,2.20
2022-10-12T03:54:54.141Z,2.20
2022-10-12T03:57:21.861Z,2.20
2022-10-12T03:59:50.857Z,2.20
2022-10-12T04:02:18.605Z,2.20
2022-10-12T04:04:46.290Z,2.20
2022-10-12T04:07:14.011Z,2.20
2022-10-12T04:09:41.734Z,2.20
2022-10-12T04:12:09.449Z,2.10
2022-10-12T04:14:37.133Z,2.00
2022-10-12T04:17:06.173Z,2.00
2022-10-12T04:19:33.864Z,1.90
2022-10-12T04:22:01.545Z,2.00
2022-10-12T04:24:29.271Z,2.00
2022-10-12T04:26:56.963Z,1.90
2022-10-12T04:29:24.690Z,1.90
2022-10-12T04:31:52.390Z,1.90
2022-10-12T04:34:21.665Z,2.00
2022-10-12T04:36:49.360Z,1.80
2022-10-12T04:39:17.085Z,1.70
2022-10-12T04:41:44.767Z,1.70
2022-10-12T04:44:12.512Z,1.70
2022-10-12T04:46:40.222Z,1.60
2022-10-12T04:49:07.935Z,1.70
2022-10-12T04:51:36.972Z,1.70
2022-10-12T04:54:04.966Z,1.70
2022-10-12T04:56:32.680Z,1.70
2022-10-12T04:59:00.382Z,1.80
2022-10-12T05:01:28.125Z,1.70
2022-10-12T05:03:55.883Z,1.60
2022-10-12T05:06:23.565Z,1.60
2022-10-12T05:08:52.620Z,1.60
2022-10-12T05:11:20.352Z,1.60
2022-10-12T05:13:48.072Z,1.50
2022-10-12T05:16:15.777Z,1.60
2022-10-12T05:18:43.515Z,1.50
2022-10-12T05:21:11.254Z,1.50
2022-10-12T05:23:39.001Z,1.40
2022-10-12T05:26:08.270Z,1.40
2022-10-12T05:28:40.647Z,1.50
2022-10-12T05:31:08.952Z,1.50
2022-10-12T05:33:36.670Z,1.40
2022-10-12T05:36:04.867Z,1.40
2022-10-12T05:38:32.567Z,1.30
2022-10-12T05:41:00.907Z,1.40
2022-10-12T05:43:30.224Z,1.40
2022-10-12T05:45:57.951Z,1.50
2022-10-12T05:48:25.983Z,1.40
2022-10-12T05:50:54.439Z,1.40
2022-10-12T05:53:22.394Z,1.30
2022-10-12T05:55:54.578Z,1.40
2022-10-12T05:58:22.342Z,1.40
2022-10-12T06:00:52.071Z,1.50
2022-10-12T06:03:26.391Z,1.50
2022-10-12T06:05:57.771Z,1.50
2022-10-12T06:08:25.570Z,1.50
2022-10-12T06:10:53.980Z,1.70
2022-10-12T06:13:21.956Z,1.70
2022-10-12T06:15:51.173Z,1.70
2022-10-12T06:18:19.473Z,1.70
2022-10-12T06:20:49.133Z,1.80
2022-10-12T06:23:16.833Z,1.80
2022-10-12T06:25:46.919Z,1.90
2022-10-12T06:28:14.962Z,1.90
2022-10-12T06:30:43.217Z,2.20
2022-10-12T06:33:12.364Z,2.40
2022-10-12T06:35:40.033Z,2.50
2022-10-12T06:38:07.694Z,2.40
2022-10-12T06:40:35.657Z,2.50
2022-10-12T06:43:03.409Z,2.60
2022-10-12T06:45:31.824Z,2.70
2022-10-12T06:47:59.607Z,2.80
2022-10-12T06:50:28.723Z,2.90
2022-10-12T06:52:56.519Z,3.10
2022-10-12T06:55:24.271Z,3.20
2022-10-12T06:57:52.026Z,3.30
2022-10-12T07:00:19.826Z,3.40
2022-10-12T07:02:50.173Z,3.50
2022-10-12T07:05:18.092Z,3.60
2022-10-12T07:07:47.176Z,3.70
2022-10-12T07:10:15.041Z,3.80
2022-10-12T07:12:42.737Z,3.90
2022-10-12T07:15:11.316Z,4.10
2022-10-12T07:17:39.396Z,4.30
2022-10-12T07:20:08.074Z,4.50
2022-10-12T07:22:36.053Z,4.60
2022-10-12T07:25:05.764Z,4.90
2022-10-12T07:27:33.454Z,5.00
2022-10-12T07:30:01.161Z,5.20
2022-10-12T07:32:28.878Z,5.40
2022-10-12T07:34:56.679Z,5.70
2022-10-12T07:37:24.442Z,6.00
2022-10-12T07:39:57.026Z,6.20
2022-10-12T07:42:26.329Z,6.50
2022-10-12T07:44:54.043Z,6.80
2022-10-12T07:47:21.756Z,7.00
2022-10-12T07:49:49.535Z,7.20
2022-10-12T07:52:17.264Z,7.30
2022-10-12T07:54:44.980Z,7.50
2022-10-12T07:57:13.685Z,7.60
2022-10-12T07:59:42.769Z,7.70
2022-10-12T08:02:11.166Z,7.90
2022-10-12T08:04:38.970Z,8.00
2022-10-12T08:07:06.732Z,8.10
2022-10-12T08:09:35.924Z,8.50
2022-10-12T08:12:03.821Z,9.10
2022-10-12T08:14:31.534Z,9.50
2022-10-12T08:17:00.560Z,9.70
2022-10-12T08:19:33.012Z,9.80
2022-10-12T08:22:02.879Z,9.90
2022-10-12T08:24:30.582Z,10.00
2022-10-12T08:27:01.362Z,10.20
2022-10-12T08:29:29.402Z,10.50
2022-10-12T08:31:57.112Z,10.90
2022-10-12T08:34:26.139Z,12.60
2022-10-12T08:36:53.857Z,16.10
2022-10-12T08:39:21.586Z,20.10
2022-10-12T08:41:57.700Z,23.60
2022-10-12T08:44:51.133Z,25.30
2022-10-12T08:47:22.824Z,26.50
2022-10-12T08:49:52.615Z,28.50
2022-10-12T08:52:28.596Z,29.00
2022-10-12T08:55:01.534Z,29.40
2022-10-12T08:57:29.478Z,30.50
2022-10-12T08:59:57.316Z,31.50
2022-10-12T09:02:46.940Z,30.70
2022-10-12T09:05:19.968Z,30.50
2022-10-12T09:07:51.810Z,30.80
2022-10-12T09:10:34.378Z,31.00
2022-10-12T09:13:11.543Z,31.60
2022-10-12T09:15:42.711Z,32.60
2022-10-12T09:18:19.292Z,33.30
2022-10-12T09:20:50.320Z,33.00
2022-10-12T09:23:26.419Z,32.50
2022-10-12T09:25:58.002Z,32.70
2022-10-12T09:28:30.647Z,32.80
2022-10-12T09:31:11.881Z,32.30
2022-10-12T09:33:43.039Z,32.90
2022-10-12T09:36:22.013Z,32.90
2022-10-12T09:38:50.735Z,32.60
2022-10-12T09:41:22.912Z,32.70
2022-10-12T09:43:54.554Z,33.00
2022-10-12T09:46:29.026Z,32.60
2022-10-12T09:49:00.806Z,32.10
2022-10-12T09:51:31.527Z,32.20
2022-10-12T09:54:03.475Z,32.30
2022-10-12T09:56:39.755Z,32.30
2022-10-12T09:59:25.610Z,32.00
2022-10-12T10:02:05.808Z,31.50
2022-10-12T10:04:33.639Z,31.10
2022-10-12T10:07:27.296Z,30.60
2022-10-12T10:10:22.712Z,30.60
2022-10-12T10:12:55.359Z,30.60
2022-10-12T10:15:27.533Z,30.60
2022-10-12T10:17:59.680Z,30.00
2022-10-12T10:20:34.749Z,28.90
2022-10-12T10:23:05.116Z,27.90
2022-10-12T10:25:34.074Z,27.10
2022-10-12T10:28:20.683Z,26.30
2022-10-12T10:30:58.451Z,25.20
2022-10-12T10:33:26.395Z,23.20
2022-10-12T10:36:01.462Z,21.50
2022-10-12T10:38:33.491Z,20.20
2022-10-12T10:41:06.021Z,19.30
2022-10-12T10:43:33.715Z,18.50
2022-10-12T10:46:04.129Z,18.10
2022-10-12T10:48:39.345Z,17.90
2022-10-12T10:51:08.286Z,17.70
2022-10-12T10:53:47.832Z,17.60
2022-10-12T10:56:21.117Z,17.50
2022-10-12T10:58:51.229Z,17.50
2022-10-12T11:01:24.688Z,17.60
2022-10-12T11:03:59.198Z,17.60
2022-10-12T11:06:38.290Z,17.50
2022-10-12T11:09:14.382Z,17.60
2022-10-12T11:11:45.155Z,17.70
2022-10-12T11:14:17.599Z,17.80
2022-10-12T11:16:51.630Z,17.80
2022-10-12T11:19:30.276Z,17.70
2022-10-12T11:22:01.561Z,17.60
2022-10-12T11:24:36.210Z,17.60
2022-10-12T11:27:08.467Z,17.70
2022-10-12T11:29:37.544Z,17.90
2022-10-12T11:32:08.742Z,17.80
2022-10-12T11:34:46.114Z,17.80
2022-10-12T11:37:20.042Z,17.70
2022-10-12T11:39:53.593Z,18.00
2022-10-12T11:42:30.084Z,18.20
2022-10-12T11:45:00.345Z,18.40
2022-10-12T11:47:35.764Z,18.50
2022-10-12T11:50:08.627Z,18.20
2022-10-12T11:52:41.358Z,18.00
2022-10-12T11:55:27.894Z,18.00
2022-10-12T11:57:59.192Z,18.20
2022-10-12T12:00:37.055Z,18.30
2022-10-12T12:03:17.066Z,18.50
2022-10-12T12:05:44.951Z,18.60
2022-10-12T12:08:22.789Z,18.70
2022-10-12T12:11:05.607Z,19.00
2022-10-12T12:13:33.609Z,19.10
2022-10-12T12:16:35.356Z,19.10
2022-10-12T12:19:41.450Z,19.10
2022-10-12T12:22:23.433Z,19.00
2022-10-12T12:25:17.810Z,19.00
2022-10-12T12:27:50.718Z,18.90
2022-10-12T12:30:26.968Z,18.70
2022-10-12T12:32:56.767Z,18.70
2022-10-12T12:35:29.272Z,18.60
2022-10-12T12:38:19.742Z,18.60
2022-10-12T12:41:06.260Z,18.50
2022-10-12T12:43:56.346Z,18.60
2022-10-12T12:46:26.929Z,18.60
2022-10-12T12:49:07.301Z,18.50
2022-10-12T12:51:43.082Z,18.40
2022-10-12T12:54:18.035Z,18.30
2022-10-12T12:57:24.066Z,18.40
2022-10-12T13:00:21.199Z,18.30
2022-10-12T13:03:20.635Z,18.30
2022-10-12T13:06:23.190Z,18.30
2022-10-12T13:09:17.083Z,18.20
2022-10-12T13:12:05.889Z,18.10
2022-10-12T13:14:54.770Z,17.90
2022-10-12T13:17:40.071Z,17.70
2022-10-12T13:20:17.709Z,17.70
2022-10-12T13:22:47.778Z,17.70
2022-10-12T13:25:26.902Z,17.60
2022-10-12T13:27:55.350Z,17.60
2022-10-12T13:30:31.210Z,17.50
2022-10-12T13:33:07.304Z,17.50
2022-10-12T13:35:40.058Z,17.40
2022-10-12T13:38:20.595Z,17.20
2022-10-12T13:40:54.914Z,17.20
2022-10-12T13:43:30.778Z,17.20
2022-10-12T13:45:58.615Z,17.10
2022-10-12T13:48:53.868Z,17.00
2022-10-12T13:51:24.364Z,16.90
2022-10-12T13:53:52.075Z,16.80
2022-10-12T13:56:23.850Z,16.80
2022-10-12T13:58:55.110Z,16.80
2022-10-12T14:01:22.881Z,16.80
2022-10-12T14:03:52.075Z,16.70
2022-10-12T14:06:28.334Z,16.60
2022-10-12T14:08:58.186Z,16.60
2022-10-12T14:11:27.484Z,16.50
2022-10-12T14:13:56.701Z,16.50
2022-10-12T14:16:24.457Z,16.50
2022-10-12T14:18:53.648Z,16.50
2022-10-12T14:21:25.421Z,16.50
2022-10-12T14:23:55.466Z,16.40
2022-10-12T14:26:30.126Z,16.40
2022-10-12T14:28:58.927Z,16.30
2022-10-12T14:31:53.137Z,16.30
2022-10-12T14:34:40.341Z,16.20
2022-10-12T14:37:24.064Z,16.20
2022-10-12T14:39:59.396Z,16.10
2022-10-12T14:42:32.962Z,16.10
2022-10-12T14:45:01.339Z,16.00
2022-10-12T14:47:31.867Z,16.00
2022-10-12T14:50:07.752Z,15.90
2022-10-12T14:52:41.211Z,15.90
2022-10-12T14:55:15.696Z,15.80
2022-10-12T14:57:43.560Z,15.90
2022-10-12T15:00:15.250Z,15.80
2022-10-12T15:02:43.742Z,15.70
2022-10-12T15:05:14.159Z,15.60
2022-10-12T15:07:42.683Z,15.50
2022-10-12T15:10:11.234Z,15.40
2022-10-12T15:12:39.222Z,15.30
2022-10-12T15:15:25.307Z,15.20
2022-10-12T15:17:55.970Z,15.20
2022-10-12T15:20:25.505Z,15.10
2022-10-12T15:22:53.287Z,15.10
2022-10-12T15:25:24.726Z,15.00
2022-10-12T15:27:52.499Z,14.90
2022-10-12T15:30:20.729Z,14.80
2022-10-12T15:32:49.265Z,14.70
2022-10-12T15:35:23.192Z,14.60
2022-10-12T15:37:52.583Z,14.50
2022-10-12T15:40:21.803Z,14.40
2022-10-12T15:42:49.582Z,14.30
2022-10-12T15:45:20.603Z,14.20
2022-10-12T15:47:49.336Z,14.20
2022-10-12T15:50:18.357Z,14.00
2022-10-12T15:52:46.314Z,13.90
2022-10-12T15:55:18.578Z,13.70
2022-10-12T15:57:46.478Z,13.60
2022-10-12T16:00:15.968Z,13.40
2022-10-12T16:02:44.240Z,13.30
2022-10-12T16:05:17.797Z,13.10
2022-10-12T16:07:45.959Z,12.80
2022-10-12T16:10:15.366Z,12.60
2022-10-12T16:12:47.510Z,12.30
2022-10-12T16:15:17.719Z,12.20
2022-10-12T16:17:45.465Z,12.00
2022-10-12T16:20:13.883Z,11.70
2022-10-12T16:22:41.934Z,11.50
2022-10-12T16:25:12.429Z,11.30
2022-10-12T16:27:40.537Z,11.20
2022-10-12T16:30:11.199Z,11.10
2022-10-12T16:32:38.996Z,10.90
2022-10-12T16:35:07.743Z,10.80
2022-10-12T16:37:36.378Z,10.80
2022-10-12T16:40:05.364Z,10.70
2022-10-12T16:42:33.555Z,10.70
2022-10-12T16:45:01.678Z,10.60
2022-10-12T16:47:30.850Z,10.50
2022-10-12T16:49:58.651Z,10.40
2022-10-12T16:52:27.146Z,10.30
2022-10-12T16:54:55.863Z,10.10
2022-10-12T16:57:23.846Z,10.00
2022-10-12T16:59:52.067Z,9.90
2022-10-12T17:02:20.662Z,9.70
2022-10-12T17:04:49.715Z,9.60
2022-10-12T17:07:18.106Z,9.50
2022-10-12T17:09:45.908Z,9.40
2022-10-12T17:12:14.051Z,9.30
2022-10-12T17:14:42.105Z,9.20
2022-10-12T17:17:10.216Z,9.10
2022-10-12T17:19:39.900Z,9.00
2022-10-12T17:22:11.041Z,8.90
2022-10-12T17:24:42.263Z,8.90
2022-10-12T17:27:12.202Z,8.80
2022-10-12T17:29:41.103Z,8.70
2022-10-12T17:32:09.941Z,8.60
2022-10-12T17:34:39.418Z,8.50
2022-10-12T17:37:11.085Z,8.40
2022-10-12T17:39:40.774Z,8.40
2022-10-12T17:42:08.606Z,8.40
2022-10-12T17:44:36.372Z,8.30
2022-10-12T17:47:04.454Z,8.20
2022-10-12T17:49:32.483Z,8.20
2022-10-12T17:52:00.315Z,8.10
2022-10-12T17:54:29.628Z,8.10
2022-10-12T17:56:57.827Z,8.00
2022-10-12T17:59:26.039Z,8.00
2022-10-12T18:01:54.353Z,7.90
2022-10-12T18:04:22.189Z,7.80
2022-10-12T18:06:50.055Z,7.70
2022-10-12T18:09:17.874Z,7.60
2022-10-12T18:11:47.138Z,7.60
2022-10-12T18:14:15.079Z,7.60
2022-10-12T18:16:42.873Z,7.50
2022-10-12T18:19:11.716Z,7.40
2022-10-12T18:21:40.117Z,7.40
2022-10-12T18:24:15.961Z,7.40
2022-10-12T18:26:46.565Z,7.30
2022-10-12T18:29:14.299Z,7.30
2022-10-12T18:31:42.377Z,7.20
2022-10-12T18:34:10.399Z,7.20
2022-10-12T18:36:38.566Z,7.20
2022-10-12T18:39:06.469Z,7.10
2022-10-12T18:41:34.355Z,7.00
2022-10-12T18:44:03.764Z,6.90
2022-10-12T18:46:35.269Z,6.90
2022-10-12T18:49:05.288Z,6.80
2022-10-12T18:51:34.941Z,6.80
2022-10-12T18:54:03.833Z,6.80
2022-10-12T18:56:32.801Z,6.70
2022-10-12T18:59:00.897Z,6.60
2022-10-12T19:01:31.493Z,6.60
2022-10-12T19:04:00.913Z,6.50
2022-10-12T19:06:30.967Z,6.50
2022-10-12T19:09:01.284Z,6.50
2022-10-12T19:11:31.054Z,6.40
2022-10-12T19:14:01.702Z,6.40
2022-10-12T19:16:32.065Z,6.40
2022-10-12T19:19:01.578Z,6.40
2022-10-12T19:21:30.447Z,6.40
2022-10-12T19:23:58.448Z,6.40
2022-10-12T19:26:28.395Z,6.30
2022-10-12T19:28:57.281Z,6.30
2022-10-12T19:31:27.301Z,6.20
2022-10-12T19:33:57.845Z,6.20
2022-10-12T19:36:26.324Z,6.20
2022-10-12T19:38:56.161Z,6.10
2022-10-12T19:41:24.177Z,6.20
2022-10-12T19:43:53.110Z,6.10
2022-10-12T19:46:21.591Z,6.10
2022-10-12T19:48:50.825Z,6.10
2022-10-12T19:51:21.221Z,6.10
2022-10-12T19:53:49.390Z,6.10
2022-10-12T19:56:20.786Z,6.00
2022-10-12T19:58:50.058Z,6.00
2022-10-12T20:01:20.001Z,6.00
2022-10-12T20:03:49.948Z,6.00
2022-10-12T20:06:19.563Z,6.00
2022-10-12T20:08:47.530Z,6.00
2022-10-12T20:11:22.511Z,6.00
2022-10-12T20:13:52.754Z,6.10
2022-10-12T20:16:22.086Z,6.10
2022-10-12T20:18:50.394Z,6.20
2022-10-12T20:21:21.852Z,6.20
2022-10-12T20:23:50.564Z,6.20
2022-10-12T20:26:20.611Z,6.20
2022-10-12T20:28:48.656Z,6.10
2022-10-12T20:31:19.259Z,6.10
2022-10-12T20:33:52.156Z,6.10
2022-10-12T20:36:24.167Z,6.10
2022-10-12T20:38:52.785Z,6.20
2022-10-12T20:41:22.162Z,6.30
2022-10-12T20:43:50.306Z,6.30
2022-10-12T20:46:19.525Z,6.20
2022-10-12T20:48:47.559Z,6.20
2022-10-12T20:51:19.789Z,6.10
2022-10-12T20:53:50.744Z,6.10
2022-10-12T20:56:18.544Z,5.90
2022-10-12T20:58:46.276Z,5.90
2022-10-12T21:01:16.788Z,5.80
2022-10-12T21:03:44.645Z,5.80
2022-10-12T21:06:14.190Z,5.80
2022-10-12T21:08:42.744Z,5.70
2022-10-12T21:11:12.183Z,5.70
2022-10-12T21:13:41.159Z,5.70
2022-10-12T21:16:09.528Z,5.70
2022-10-12T21:18:38.339Z,5.60
2022-10-12T21:21:11.385Z,5.60
2022-10-12T21:23:39.466Z,5.40
2022-10-12T21:26:12.489Z,5.40
2022-10-12T21:28:40.307Z,5.40
2022-10-12T21:31:08.728Z,5.40
2022-10-12T21:33:37.391Z,5.30
2022-10-12T21:36:09.542Z,5.30
2022-10-12T21:38:37.574Z,5.40
2022-10-12T21:41:06.155Z,5.30
2022-10-12T21:43:35.603Z,5.30
2022-10-12T21:46:04.768Z,5.20
2022-10-12T21:48:33.311Z,5.20
2022-10-12T21:51:01.843Z,5.20
2022-10-12T21:53:29.768Z,5.20
2022-10-12T21:55:57.690Z,5.30
2022-10-12T21:58:25.508Z,5.30
2022-10-12T22:00:54.719Z,5.20
2022-10-12T22:03:23.671Z,5.10
2022-10-12T22:05:51.378Z,5.10
2022-10-12T22:08:19.097Z,5.00
2022-10-12T22:10:46.798Z,5.00
2022-10-12T22:13:14.519Z,5.00
2022-10-12T22:15:42.292Z,4.90
2022-10-12T22:18:11.319Z,4.80
2022-10-12T22:20:39.251Z,4.80
2022-10-12T22:23:07.003Z,4.80
2022-10-12T22:25:34.737Z,4.70
2022-10-12T22:28:02.442Z,4.70
2022-10-12T22:30:30.152Z,4.70
2022-10-12T22:32:57.973Z,4.70
2022-10-12T22:35:27.052Z,4.70
2022-10-12T22:37:54.742Z,4.70
2022-10-12T22:40:22.475Z,4.70
2022-10-12T22:42:50.252Z,4.70
2022-10-12T22:45:17.976Z,4.70
2022-10-12T22:47:45.853Z,4.70
2022-10-12T22:50:13.567Z,4.70
2022-10-12T22:52:42.615Z,4.70
2022-10-12T22:55:10.646Z,4.70
2022-10-12T22:57:38.392Z,4.70
2022-10-12T23:00:07.080Z,4.70
2022-10-12T23:02:34.792Z,4.60
2022-10-12T23:05:02.534Z,4.60
2022-10-12T23:07:30.221Z,4.60
2022-10-12T23:09:59.261Z,4.60
2022-10-12T23:12:26.985Z,4.60
2022-10-12T23:14:54.699Z,4.50
2022-10-12T23:17:22.395Z,4.50
2022-10-12T23:19:50.091Z,4.50
2022-10-12T23:22:18.007Z,4.50
2022-10-12T23:24:45.924Z,4.50
2022-10-12T23:27:15.138Z,4.60
2022-10-12T23:29:42.871Z,4.50
2022-10-12T23:32:10.616Z,4.60
2022-10-12T23:34:38.324Z,4.60
2022-10-12T23:37:06.034Z,4.60
2022-10-12T23:39:34.009Z,4.50
2022-10-12T23:42:01.796Z,4.40
2022-10-12T23:44:30.840Z,4.50
2022-10-12T23:46:58.553Z,4.40
2022-10-12T23:49:26.304Z,4.40
2022-10-12T23:51:54.023Z,4.40
2022-10-12T23:54:21.759Z,4.30
2022-10-12T23:56:49.491Z,4.40
2022-10-12T23:59:17.193Z,4.30
